This is the latest recevied weather packets stored in our database for station/object KU4DD. If no packets are shown the sender has not sent any weather packets the latest 10 day(s).
| Time | Temp. | Humidity | Pressure | Rain* | Wind** | Luminosity | Snow |
|---|---|---|---|---|---|---|---|
| 1788572542 | 30.56° C | 73% | 1014.2 hPa | 0 mm | - | 0 W/m² | - |
| 1788571914 | 30.56° C | 73% | 1014.2 hPa | 0 mm | - | 0 W/m² | - |
| 1788570056 | 30° C | 76% | 1013.2 hPa | 0 mm | - | 0 W/m² | - |
| 1788569729 | 30° C | 77% | 1012.9 hPa | 0 mm | - | 0 W/m² | - |
| 1788569407 | 30° C | 77% | 1012.9 hPa | 0 mm | - | 0 W/m² | - |
| 1788568781 | 30° C | 76% | 1012.9 hPa | 0 mm | - | 0 W/m² | - |
| 1788568151 | 30.56° C | 75% | 1012.9 hPa | 0 mm | - | 0 W/m² | - |
| 1788567216 | 30.56° C | 74% | 1012.9 hPa | 0 mm | - | 0 W/m² | - |
| 1788563792 | 32.78° C | 66% | 1012.9 hPa | 0 mm | - | 19 W/m² | - |
| 1788562248 | 33.89° C | 64% | 1012.5 hPa | 0 mm | - | 77 W/m² | - |
| 1788557923 | 35° C | 60% | 1012.9 hPa | 0 mm | - | 60 W/m² | - |
| 1788555140 | 35.56° C | 58% | 1012.5 hPa | 0 mm | - | 459 W/m² | - |
| 1788553599 | 35° C | 60% | 1012.9 hPa | 0 mm | - | 596 W/m² | - |
| 1788549582 | 35.56° C | 61% | 1014.2 hPa | 0 mm | - | 761 W/m² | - |
| 1788549266 | 35.56° C | 61% | 1014.2 hPa | 0 mm | - | 772 W/m² | - |
| 1788548023 | 35° C | 61% | 1014.6 hPa | 0 mm | - | 812 W/m² | - |
| 1788546783 | 35° C | 62% | 1014.9 hPa | 0 mm | - | 837 W/m² | - |
| 1788545844 | 34.44° C | 63% | 1015.2 hPa | 0 mm | - | 856 W/m² | - |
| 1788545520 | 34.44° C | 62% | 1015.2 hPa | 0 mm | - | 867 W/m² | - |
| 1788545201 | 34.44° C | 64% | 1015.2 hPa | 0 mm | - | 868 W/m² | - |
| 1788544279 | 34.44° C | 63% | 1015.2 hPa | 0 mm | - | 872 W/m² | - |
| 1788539959 | 33.33° C | 67% | 1016.3 hPa | 0 mm | - | 847 W/m² | - |
| 1788539327 | 32.78° C | 68% | 1016.3 hPa | 0 mm | - | 221 W/m² | - |
| 1788532230 | 29.44° C | 79% | 1016.6 hPa | 0 mm | - | 626 W/m² | - |
| 1788531608 | 29.44° C | 80% | 1016.6 hPa | 0 mm | - | 596 W/m² | - |
* Rain latest hour (hover to see other rain measurements)
** Current wind speed in m/s (hover to see current wind gust speed)